createdAt,value
2019-05-18T00:04:53.643Z,10.80
2019-05-18T00:09:58.580Z,10.80
2019-05-18T00:15:05.235Z,10.80
2019-05-18T00:20:11.485Z,10.80
2019-05-18T00:25:16.639Z,10.70
2019-05-18T00:30:22.528Z,10.80
2019-05-18T00:35:27.878Z,10.70
2019-05-18T00:40:32.879Z,10.70
2019-05-18T00:45:38.292Z,10.70
2019-05-18T00:50:43.264Z,10.80
2019-05-18T00:55:48.454Z,10.80
2019-05-18T01:00:54.108Z,10.90
2019-05-18T01:06:00.865Z,10.90
2019-05-18T01:11:06.572Z,10.90
2019-05-18T01:16:12.976Z,10.80
2019-05-18T01:21:19.637Z,10.80
2019-05-18T01:26:26.666Z,10.80
2019-05-18T01:31:34.660Z,10.70
2019-05-18T01:36:39.923Z,10.60
2019-05-18T01:41:45.794Z,10.50
2019-05-18T01:46:52.846Z,10.50
2019-05-18T01:51:59.977Z,10.50
2019-05-18T01:57:06.438Z,10.50
2019-05-18T02:02:13.094Z,10.40
2019-05-18T02:07:17.983Z,10.40
2019-05-18T02:12:23.306Z,10.40
2019-05-18T02:17:28.554Z,10.40
2019-05-18T02:22:33.628Z,10.50
2019-05-18T02:27:38.788Z,10.50
2019-05-18T02:32:44.152Z,10.60
2019-05-18T02:37:49.465Z,10.70
2019-05-18T02:42:54.732Z,10.80
2019-05-18T02:48:00.016Z,10.90
2019-05-18T02:53:04.927Z,10.90
2019-05-18T02:58:10.127Z,10.90
2019-05-18T03:03:15.416Z,10.90
2019-05-18T03:08:20.395Z,10.80
2019-05-18T03:13:25.586Z,10.70
2019-05-18T03:18:31.000Z,10.70
2019-05-18T03:23:36.168Z,10.70
2019-05-18T03:28:41.327Z,10.70
2019-05-18T03:33:46.659Z,10.70
2019-05-18T03:38:51.994Z,10.80
2019-05-18T03:43:57.230Z,10.80
2019-05-18T03:49:02.421Z,11.00
2019-05-18T03:54:07.363Z,11.10
2019-05-18T03:59:12.628Z,11.30
2019-05-18T04:04:21.485Z,11.40
2019-05-18T04:09:26.642Z,11.40
2019-05-18T04:14:31.861Z,11.50
2019-05-18T04:19:46.263Z,11.60
2019-05-18T04:24:45.147Z,11.60
2019-05-18T04:29:50.611Z,11.60
2019-05-18T04:34:56.099Z,11.70
2019-05-18T04:40:01.493Z,11.80
2019-05-18T04:45:09.354Z,11.90
2019-05-18T04:50:14.892Z,12.00
2019-05-18T04:55:20.344Z,12.10
2019-05-18T05:00:25.575Z,12.30
2019-05-18T05:05:30.555Z,12.50
2019-05-18T05:10:35.909Z,12.80
2019-05-18T05:15:41.286Z,13.20
2019-05-18T05:20:47.387Z,13.50
2019-05-18T05:25:52.709Z,13.80
2019-05-18T05:30:57.687Z,14.00
2019-05-18T05:36:02.940Z,14.10
2019-05-18T05:41:08.029Z,14.20
2019-05-18T05:46:13.173Z,14.40
2019-05-18T05:51:18.359Z,14.60
2019-05-18T05:56:23.362Z,14.80
2019-05-18T06:01:28.643Z,14.90
2019-05-18T06:06:33.935Z,15.10
2019-05-18T06:11:38.892Z,15.30
2019-05-18T06:16:43.828Z,15.40
2019-05-18T06:21:49.096Z,15.60
2019-05-18T06:26:53.980Z,15.70
2019-05-18T06:31:59.325Z,15.80
2019-05-18T06:37:04.263Z,15.90
2019-05-18T06:42:10.956Z,16.00
2019-05-18T06:47:16.307Z,16.10
2019-05-18T06:52:21.509Z,16.20
2019-05-18T06:57:27.884Z,16.20
2019-05-18T07:02:33.282Z,16.30
2019-05-18T07:07:38.366Z,16.30
2019-05-18T07:12:43.666Z,16.30
2019-05-18T07:17:48.617Z,16.40
2019-05-18T07:22:53.766Z,16.40
2019-05-18T07:27:58.753Z,16.50
2019-05-18T07:33:03.774Z,16.60
2019-05-18T07:38:09.042Z,16.60
2019-05-18T07:43:14.021Z,16.80
2019-05-18T07:48:19.186Z,16.90
2019-05-18T07:53:24.416Z,17.00
2019-05-18T07:58:29.388Z,17.00
2019-05-18T08:03:34.677Z,17.00
2019-05-18T08:08:39.845Z,17.20
2019-05-18T08:13:44.806Z,17.30
2019-05-18T08:18:49.919Z,17.50
2019-05-18T08:23:55.292Z,17.70
2019-05-18T08:29:00.204Z,17.90
2019-05-18T08:34:05.518Z,18.10
2019-05-18T08:39:10.919Z,18.30
2019-05-18T08:44:16.032Z,18.60
2019-05-18T08:49:21.348Z,18.80
2019-05-18T08:54:26.290Z,19.00
2019-05-18T08:59:31.286Z,19.10
2019-05-18T09:04:36.689Z,19.20
2019-05-18T09:09:41.917Z,19.20
2019-05-18T09:14:47.195Z,19.30
2019-05-18T09:19:52.486Z,19.30
2019-05-18T09:24:57.751Z,19.40
2019-05-18T09:30:03.100Z,19.60
2019-05-18T09:35:09.243Z,19.80
2019-05-18T09:40:14.350Z,20.00
2019-05-18T09:45:20.230Z,20.10
2019-05-18T09:50:25.392Z,20.10
2019-05-18T09:55:30.855Z,20.20
2019-05-18T10:00:38.966Z,20.30
2019-05-18T10:05:42.706Z,20.40
2019-05-18T10:10:47.615Z,20.40
2019-05-18T10:15:52.811Z,20.40
2019-05-18T10:20:57.846Z,20.50
2019-05-18T10:26:02.996Z,20.80
2019-05-18T10:31:08.510Z,21.00
2019-05-18T10:36:13.732Z,21.70
2019-05-18T10:41:19.031Z,22.30
2019-05-18T10:46:24.347Z,22.70
2019-05-18T10:51:29.300Z,23.10
2019-05-18T10:56:34.430Z,23.10
2019-05-18T11:01:39.812Z,22.80
2019-05-18T11:06:45.097Z,22.70
2019-05-18T11:11:50.054Z,23.10
2019-05-18T11:16:55.259Z,23.00
2019-05-18T11:22:00.458Z,22.70
2019-05-18T11:27:05.439Z,22.60
2019-05-18T11:32:10.662Z,22.30
2019-05-18T11:37:15.933Z,22.00
2019-05-18T11:42:21.096Z,21.90
2019-05-18T11:47:26.413Z,21.70
2019-05-18T11:52:31.478Z,21.50
2019-05-18T11:57:36.957Z,21.90
2019-05-18T12:02:42.237Z,22.00
2019-05-18T12:07:47.587Z,22.10
2019-05-18T12:12:52.673Z,22.10
2019-05-18T12:17:58.158Z,21.90
2019-05-18T12:23:07.943Z,22.10
2019-05-18T12:28:10.528Z,22.20
2019-05-18T12:33:15.821Z,22.30
2019-05-18T12:38:21.242Z,22.30
2019-05-18T12:43:26.825Z,22.30
2019-05-18T12:48:32.287Z,22.40
2019-05-18T12:53:37.646Z,22.60
2019-05-18T12:58:43.477Z,23.00
2019-05-18T13:03:49.290Z,23.60
2019-05-18T13:08:54.381Z,23.40
2019-05-18T13:13:59.583Z,23.30
2019-05-18T13:19:04.891Z,23.80
2019-05-18T13:24:10.358Z,24.30
2019-05-18T13:29:15.401Z,25.00
2019-05-18T13:34:20.771Z,25.60
2019-05-18T13:39:26.258Z,26.00
2019-05-18T13:44:31.970Z,26.20
2019-05-18T13:49:37.639Z,26.50
2019-05-18T13:54:43.033Z,26.50
2019-05-18T13:59:48.273Z,27.00
2019-05-18T14:04:53.431Z,26.60
2019-05-18T14:09:58.766Z,26.20
2019-05-18T14:15:05.910Z,26.00
2019-05-18T14:20:11.475Z,25.70
2019-05-18T14:25:19.864Z,25.30
2019-05-18T14:30:23.841Z,24.80
2019-05-18T14:35:28.882Z,24.60
2019-05-18T14:40:33.858Z,24.70
2019-05-18T14:45:39.110Z,24.60
2019-05-18T14:50:44.584Z,24.50
2019-05-18T14:55:49.586Z,24.20
2019-05-18T15:00:54.650Z,24.30
2019-05-18T15:05:59.629Z,24.30
2019-05-18T15:11:04.959Z,24.30
2019-05-18T15:16:10.149Z,24.70
2019-05-18T15:21:15.173Z,24.80
2019-05-18T15:26:20.478Z,24.90
2019-05-18T15:31:26.041Z,24.80
2019-05-18T15:36:31.478Z,25.00
2019-05-18T15:41:36.709Z,25.10
2019-05-18T15:46:41.952Z,25.10
2019-05-18T15:51:47.179Z,25.10
2019-05-18T15:56:52.060Z,25.00
2019-05-18T16:01:57.191Z,24.60
2019-05-18T16:07:02.706Z,24.40
2019-05-18T16:12:08.005Z,24.40
2019-05-18T16:17:13.385Z,24.50
2019-05-18T16:22:18.763Z,24.60
2019-05-18T16:27:24.420Z,24.40
2019-05-18T16:32:29.749Z,24.10
2019-05-18T16:37:35.101Z,23.80
2019-05-18T16:42:40.073Z,23.30
2019-05-18T16:47:45.480Z,23.00
2019-05-18T16:52:50.799Z,22.70
2019-05-18T16:57:56.219Z,22.40
2019-05-18T17:03:01.108Z,22.30
2019-05-18T17:08:06.603Z,22.20
2019-05-18T17:13:11.982Z,22.20
2019-05-18T17:18:17.201Z,22.10
2019-05-18T17:23:22.763Z,22.20
2019-05-18T17:28:27.947Z,22.00
2019-05-18T17:33:34.834Z,22.00
2019-05-18T17:38:40.109Z,22.00
2019-05-18T17:43:45.339Z,21.90
2019-05-18T17:48:51.029Z,21.80
2019-05-18T17:53:55.920Z,21.70
2019-05-18T17:59:01.358Z,21.50
2019-05-18T18:04:06.704Z,21.30
2019-05-18T18:09:11.697Z,21.10
2019-05-18T18:14:16.991Z,20.90
2019-05-18T18:19:22.316Z,20.80
2019-05-18T18:24:27.536Z,20.50
2019-05-18T18:29:32.667Z,20.40
2019-05-18T18:34:38.005Z,20.30
2019-05-18T18:39:43.094Z,20.20
2019-05-18T18:44:48.038Z,20.10
2019-05-18T18:49:53.187Z,19.90
2019-05-18T18:54:58.591Z,19.70
2019-05-18T19:00:04.662Z,19.40
2019-05-18T19:05:09.857Z,19.30
2019-05-18T19:10:16.916Z,19.20
2019-05-18T19:15:22.579Z,19.10
2019-05-18T19:20:28.895Z,19.00
2019-05-18T19:25:34.239Z,19.00
2019-05-18T19:30:39.661Z,18.80
2019-05-18T19:35:45.066Z,18.70
2019-05-18T19:40:50.435Z,18.50
2019-05-18T19:45:55.792Z,18.30
2019-05-18T19:51:01.143Z,18.20
2019-05-18T19:56:06.799Z,18.00
2019-05-18T20:01:12.141Z,17.90
2019-05-18T20:06:33.993Z,17.70
2019-05-18T20:11:39.542Z,17.50
2019-05-18T20:16:44.825Z,17.40
2019-05-18T20:21:50.091Z,17.20
2019-05-18T20:26:55.280Z,17.10
2019-05-18T20:32:00.509Z,17.00
2019-05-18T20:37:05.920Z,16.90
2019-05-18T20:42:10.969Z,16.80
2019-05-18T20:47:16.181Z,16.70
2019-05-18T20:52:21.461Z,16.60
2019-05-18T20:57:31.204Z,16.50
2019-05-18T21:02:36.444Z,16.40
2019-05-18T21:07:41.606Z,16.10
2019-05-18T21:12:47.031Z,15.90
2019-05-18T21:17:52.426Z,15.80
2019-05-18T21:22:57.525Z,15.60
2019-05-18T21:28:02.533Z,15.60
2019-05-18T21:33:07.878Z,15.50
2019-05-18T21:38:13.106Z,15.40
2019-05-18T21:43:18.392Z,15.40
2019-05-18T21:48:23.643Z,15.20
2019-05-18T21:53:28.642Z,15.10
2019-05-18T21:58:33.601Z,15.00
2019-05-18T22:03:38.633Z,14.90
2019-05-18T22:08:43.868Z,14.80
2019-05-18T22:13:49.178Z,14.70
2019-05-18T22:18:54.598Z,14.70
2019-05-18T22:23:59.976Z,14.70
2019-05-18T22:29:05.121Z,14.70
2019-05-18T22:34:10.311Z,14.70
2019-05-18T22:39:15.608Z,14.60
2019-05-18T22:44:20.878Z,14.60
2019-05-18T22:49:26.229Z,14.50
2019-05-18T22:54:31.297Z,14.50
2019-05-18T22:59:36.842Z,14.40
2019-05-18T23:04:41.942Z,14.30
2019-05-18T23:09:47.070Z,14.30
2019-05-18T23:14:52.016Z,14.30
2019-05-18T23:19:57.198Z,14.30
2019-05-18T23:25:02.358Z,14.20
2019-05-18T23:30:08.150Z,14.20
2019-05-18T23:35:13.496Z,14.10
2019-05-18T23:40:18.915Z,14.10
2019-05-18T23:45:24.090Z,14.00
2019-05-18T23:50:29.322Z,13.90
2019-05-18T23:55:35.437Z,13.90
